Mia-s — V2EI7 — position and weather

sailwx.info

Track history (hours):
 
Tides and Currents Weather Stations Pressure Air Temp Water Temp Dewpoint Dewpoint Depression Visibility Wind Speed Wind Dir Waves Ship Positions

Mia-s

Last reported at 2014-Nov-22 20:30 UTC. Time now 2014-Nov-22 21:29 UTC.
Position N 34°37' E 135°10'.

Length 190 m; draft 7.6 m.

Type: Cargo ship. MMSI: 305442000.

Date/timePositionNaut miles runAvg speedWind from/ knotsBaromVisibWave heightAir tempDewpointWater temp
2014-Nov-22 20:30N 34°37' E 135°10'0 0.0
2014-Nov-22 19:30N 34°37' E 135°10'0 0.2
2014-Nov-22 18:30N 34°37' E 135°10'0 0.0
2014-Nov-22 17:24N 34°37' E 135°10'0 0.1
2014-Nov-22 16:24N 34°37' E 135°10'0 0.1
2014-Nov-22 15:18N 34°37' E 135°10'0 0.0
2014-Nov-22 14:30N 34°37' E 135°10'0 0.0
2014-Nov-22 13:30N 34°37' E 135°10'0 0.0
2014-Nov-22 12:30N 34°37' E 135°10'0 0.0
2014-Nov-22 11:30N 34°37' E 135°10'0 0.0
2014-Nov-22 10:30N 34°37' E 135°10'0 0.1
2014-Nov-22 09:24N 34°37' E 135°10'0 0.1
2014-Nov-22 08:30N 34°37' E 135°10'0 0.1
2014-Nov-22 07:18N 34°37' E 135°10'0 0.1
2014-Nov-22 06:24N 34°37' E 135°10'2 2.5
2014-Nov-22 05:33N 34°35' E 135°10'1211.9
2014-Nov-22 04:33N 34°25' E 135°03'1111.5
2014-Nov-22 03:33N 34°14' E 134°59'1212.2
2014-Nov-22 02:33N 34°01' E 134°58'  
2014-Nov-19 04:17N 35°05' E 139°44'912.3
2014-Nov-19 03:34N 35°14' E 139°46'1211.5
2014-Nov-19 02:33N 35°25' E 139°45'9 0.3
2014-Nov-17 23:29N 35°31' E 139°55'9 9.6
2014-Nov-17 22:33N 35°25' E 139°47'9 9.3
2014-Nov-17 21:33N 35°15' E 139°47'1110.2
2014-Nov-17 20:32N 35°05' E 139°44'22 7.2
2014-Nov-17 17:31N 34°57' E 140°09'  
Track history (hours):
 
Tides and Currents Weather Stations Pressure Air Temp Water Temp Dewpoint Dewpoint Depression Visibility Wind Speed Wind Dir Waves Ship Positions

Mia-s

Last reported at 2014-Nov-22 20:30 UTC. Time now 2014-Nov-22 21:29 UTC.
Position N 34°37' E 135°10'.

Length 190 m; draft 7.6 m.

Type: Cargo ship. MMSI: 305442000.

Date/timePositionNaut miles runAvg speedWind from/ knotsBaromVisibWave heightAir tempDewpointWater temp
2014-Nov-22 20:30N 34°37' E 135°10'0 0.0
2014-Nov-22 19:30N 34°37' E 135°10'0 0.2
2014-Nov-22 18:30N 34°37' E 135°10'0 0.0
2014-Nov-22 17:24N 34°37' E 135°10'0 0.1
2014-Nov-22 16:24N 34°37' E 135°10'0 0.1
2014-Nov-22 15:18N 34°37' E 135°10'0 0.0
2014-Nov-22 14:30N 34°37' E 135°10'0 0.0
2014-Nov-22 13:30N 34°37' E 135°10'0 0.0
2014-Nov-22 12:30N 34°37' E 135°10'0 0.0
2014-Nov-22 11:30N 34°37' E 135°10'0 0.0
2014-Nov-22 10:30N 34°37' E 135°10'0 0.1
2014-Nov-22 09:24N 34°37' E 135°10'0 0.1
2014-Nov-22 08:30N 34°37' E 135°10'0 0.1
2014-Nov-22 07:18N 34°37' E 135°10'0 0.1
2014-Nov-22 06:24N 34°37' E 135°10'2 2.5
2014-Nov-22 05:33N 34°35' E 135°10'1211.9
2014-Nov-22 04:33N 34°25' E 135°03'1111.5
2014-Nov-22 03:33N 34°14' E 134°59'1212.2
2014-Nov-22 02:33N 34°01' E 134°58'  
2014-Nov-19 04:17N 35°05' E 139°44'912.3
2014-Nov-19 03:34N 35°14' E 139°46'1211.5
2014-Nov-19 02:33N 35°25' E 139°45'9 0.3
2014-Nov-17 23:29N 35°31' E 139°55'9 9.6
2014-Nov-17 22:33N 35°25' E 139°47'9 9.3
2014-Nov-17 21:33N 35°15' E 139°47'1110.2
2014-Nov-17 20:32N 35°05' E 139°44'22 7.2
2014-Nov-17 17:31N 34°57' E 140°09'  

Dump ship's entire track history